createdAt,value
2019-02-27T00:02:15.858Z,33.30
2019-02-27T00:04:44.840Z,33.60
2019-02-27T00:07:14.956Z,34.00
2019-02-27T00:09:46.199Z,34.77
2019-02-27T00:12:16.959Z,33.57
2019-02-27T00:14:45.388Z,32.30
2019-02-27T00:17:18.068Z,33.50
2019-02-27T00:19:46.879Z,38.73
2019-02-27T00:22:19.071Z,40.63
2019-02-27T00:24:47.906Z,31.43
2019-02-27T00:27:16.788Z,40.60
2019-02-27T00:29:45.882Z,37.30
2019-02-27T00:32:15.746Z,39.23
2019-02-27T00:34:48.114Z,34.97
2019-02-27T00:37:19.070Z,35.40
2019-02-27T00:39:47.453Z,37.73
2019-02-27T00:42:19.546Z,34.50
2019-02-27T00:44:47.016Z,34.00
2019-02-27T00:47:17.075Z,35.33
2019-02-27T00:49:46.533Z,33.50
2019-02-27T00:52:18.053Z,34.57
2019-02-27T00:54:46.267Z,32.27
2019-02-27T00:57:20.388Z,33.03
2019-02-27T00:59:45.727Z,36.17
2019-02-27T01:02:14.937Z,33.23
2019-02-27T01:04:43.675Z,33.53
2019-02-27T01:07:12.419Z,33.77
2019-02-27T01:09:41.408Z,33.83
2019-02-27T01:12:10.232Z,38.30
2019-02-27T01:14:39.204Z,34.03
2019-02-27T01:17:09.760Z,31.63
2019-02-27T01:19:39.383Z,33.43
2019-02-27T01:22:08.456Z,31.77
2019-02-27T01:24:37.220Z,33.83
2019-02-27T01:27:06.465Z,32.33
2019-02-27T01:29:37.148Z,34.03
2019-02-27T01:32:08.978Z,32.60
2019-02-27T01:34:37.611Z,31.27
2019-02-27T01:37:06.493Z,33.70
2019-02-27T01:39:37.245Z,32.60
2019-02-27T01:42:05.924Z,33.20
2019-02-27T01:44:34.584Z,38.37
2019-02-27T01:47:03.772Z,29.17
2019-02-27T01:49:32.486Z,31.67
2019-02-27T01:52:02.196Z,37.73
2019-02-27T01:54:30.968Z,32.83
2019-02-27T01:56:59.872Z,30.40
2019-02-27T01:59:31.550Z,32.73
2019-02-27T02:02:01.059Z,35.77
2019-02-27T02:04:31.494Z,31.53
2019-02-27T02:07:00.253Z,32.43
2019-02-27T02:09:35.776Z,32.27
2019-02-27T02:12:08.660Z,31.47
2019-02-27T02:14:42.203Z,29.53
2019-02-27T02:17:25.706Z,33.17
2019-02-27T02:19:58.789Z,33.63
2019-02-27T02:22:33.006Z,30.23
2019-02-27T02:25:17.397Z,33.97
2019-02-27T02:28:02.579Z,30.50
2019-02-27T02:30:53.303Z,30.33
2019-02-27T02:33:30.246Z,33.67
2019-02-27T02:36:02.911Z,31.17
2019-02-27T02:38:36.244Z,34.20
2019-02-27T02:41:09.431Z,32.33
2019-02-27T02:43:42.029Z,31.37
2019-02-27T02:46:35.949Z,35.73
2019-02-27T02:49:29.626Z,32.97
2019-02-27T02:52:05.557Z,31.17
2019-02-27T02:55:02.931Z,35.40
2019-02-27T02:57:59.923Z,34.80
2019-02-27T03:00:37.704Z,30.53
2019-02-27T03:03:21.596Z,32.97
2019-02-27T03:06:12.639Z,34.40
2019-02-27T03:09:10.405Z,30.37
2019-02-27T03:11:45.407Z,32.90
2019-02-27T03:14:42.271Z,31.20
2019-02-27T03:17:39.065Z,34.53
2019-02-27T03:20:21.619Z,32.50
2019-02-27T03:23:07.004Z,32.23
2019-02-27T03:25:48.623Z,31.40
2019-02-27T03:28:45.694Z,29.50
2019-02-27T03:31:19.190Z,32.07
2019-02-27T03:34:07.892Z,31.97
2019-02-27T03:36:40.774Z,33.00
2019-02-27T03:39:16.478Z,32.67
2019-02-27T03:42:07.190Z,39.80
2019-02-27T03:44:41.132Z,34.60
2019-02-27T03:47:21.523Z,32.93
2019-02-27T03:50:18.684Z,31.37
2019-02-27T03:53:12.546Z,31.97
2019-02-27T03:55:59.056Z,31.10
2019-02-27T03:58:36.488Z,34.43
2019-02-27T04:01:23.066Z,34.67
2019-02-27T04:04:16.745Z,34.17
2019-02-27T04:06:53.040Z,36.07
2019-02-27T04:09:22.530Z,33.03
2019-02-27T04:11:51.227Z,35.30
2019-02-27T04:14:26.119Z,34.17
2019-02-27T04:16:54.867Z,32.67
2019-02-27T04:19:24.560Z,36.13
2019-02-27T04:21:53.259Z,34.27
2019-02-27T04:24:22.580Z,31.37
2019-02-27T04:26:52.081Z,31.87
2019-02-27T04:29:20.678Z,31.87
2019-02-27T04:31:49.168Z,39.47
2019-02-27T04:34:17.715Z,30.13
2019-02-27T04:36:47.191Z,38.03
2019-02-27T04:39:16.355Z,32.27
2019-02-27T04:41:44.902Z,38.27
2019-02-27T04:44:13.661Z,33.23
2019-02-27T04:46:42.486Z,36.80
2019-02-27T04:49:12.902Z,34.00
2019-02-27T04:51:41.488Z,34.70
2019-02-27T04:54:10.149Z,34.10
2019-02-27T04:56:38.859Z,33.63
2019-02-27T04:59:07.593Z,31.63
2019-02-27T05:01:37.324Z,34.60
2019-02-27T05:04:34.916Z,28.73
2019-02-27T05:07:03.206Z,33.37
2019-02-27T05:09:44.463Z,33.83
2019-02-27T05:12:23.593Z,32.17
2019-02-27T05:14:53.123Z,34.97
2019-02-27T05:17:22.050Z,30.57
2019-02-27T05:19:59.788Z,33.27
2019-02-27T05:22:30.564Z,29.67
2019-02-27T05:25:02.197Z,29.97
2019-02-27T05:27:37.024Z,31.03
2019-02-27T05:30:06.134Z,29.97
2019-02-27T05:32:39.921Z,33.43
2019-02-27T05:35:09.508Z,31.47
2019-02-27T05:37:46.906Z,35.30
2019-02-27T05:40:16.223Z,34.60
2019-02-27T05:42:48.147Z,36.43
2019-02-27T05:45:17.173Z,36.47
2019-02-27T05:47:49.652Z,36.17
2019-02-27T05:50:27.947Z,31.30
2019-02-27T05:53:11.226Z,39.13
2019-02-27T05:55:44.180Z,39.27
2019-02-27T05:58:31.355Z,33.80
2019-02-27T06:01:02.049Z,37.70
2019-02-27T06:03:30.375Z,34.70
2019-02-27T06:05:59.783Z,31.57
2019-02-27T06:08:28.389Z,32.97
2019-02-27T06:10:56.926Z,34.50
2019-02-27T06:13:25.551Z,31.70
2019-02-27T06:15:54.366Z,31.27
2019-02-27T06:18:23.766Z,32.43
2019-02-27T06:20:52.845Z,29.30
2019-02-27T06:23:21.341Z,32.33
2019-02-27T06:25:50.117Z,30.53
2019-02-27T06:28:19.406Z,33.70
2019-02-27T06:30:48.237Z,32.83
2019-02-27T06:33:16.844Z,35.03
2019-02-27T06:35:46.084Z,34.83
2019-02-27T06:38:14.620Z,34.63
2019-02-27T06:40:46.137Z,34.30
2019-02-27T06:43:16.389Z,32.47
2019-02-27T06:45:46.359Z,34.60
2019-02-27T06:48:15.207Z,36.30
2019-02-27T06:50:44.194Z,33.83
2019-02-27T06:53:15.641Z,31.17
2019-02-27T06:55:44.977Z,34.43
2019-02-27T06:58:14.842Z,35.07
2019-02-27T07:00:43.883Z,31.77
2019-02-27T07:03:12.508Z,35.43
2019-02-27T07:05:41.068Z,37.63
2019-02-27T07:08:09.756Z,38.80
2019-02-27T07:10:38.275Z,35.57
2019-02-27T07:13:06.856Z,36.67
2019-02-27T07:15:35.265Z,38.50
2019-02-27T07:18:06.085Z,37.73
2019-02-27T07:20:34.179Z,38.40
2019-02-27T07:23:02.794Z,32.87
2019-02-27T07:25:31.512Z,49.83
2019-02-27T07:28:03.441Z,33.83
2019-02-27T07:30:31.637Z,44.07
2019-02-27T07:33:00.209Z,48.77
2019-02-27T07:35:29.339Z,42.03
2019-02-27T07:37:57.862Z,37.97
2019-02-27T07:40:26.666Z,48.13
2019-02-27T07:42:55.241Z,48.80
2019-02-27T07:45:23.748Z,54.13
2019-02-27T07:47:52.420Z,46.80
2019-02-27T07:50:21.043Z,45.57
2019-02-27T07:52:51.828Z,45.00
2019-02-27T07:55:23.067Z,37.63
2019-02-27T07:57:51.797Z,36.87
2019-02-27T08:00:20.382Z,33.67
2019-02-27T08:02:49.032Z,36.37
2019-02-27T08:05:17.670Z,39.17
2019-02-27T08:07:48.638Z,29.63
2019-02-27T08:10:18.276Z,165.90
2019-02-27T08:12:46.803Z,85.53
2019-02-27T08:15:15.943Z,61.47
2019-02-27T08:17:44.498Z,61.23
2019-02-27T08:20:14.216Z,58.83
2019-02-27T08:22:42.864Z,35.03
2019-02-27T08:25:13.489Z,30.77
2019-02-27T08:27:43.756Z,35.77
2019-02-27T08:30:13.867Z,25.50
2019-02-27T08:32:42.528Z,26.97
2019-02-27T08:35:35.766Z,27.57
2019-02-27T08:38:04.132Z,32.40
2019-02-27T08:40:32.776Z,24.90
2019-02-27T08:43:01.272Z,22.27
2019-02-27T08:45:29.713Z,22.37
2019-02-27T08:47:58.250Z,23.10
2019-02-27T08:50:29.198Z,21.67
2019-02-27T08:52:57.973Z,28.80
2019-02-27T08:55:28.318Z,22.87
2019-02-27T08:57:57.126Z,20.77
2019-02-27T09:00:25.967Z,19.20
2019-02-27T09:02:56.888Z,24.03
2019-02-27T09:05:29.317Z,24.77
2019-02-27T09:07:58.029Z,25.10
2019-02-27T09:10:30.791Z,20.17
2019-02-27T09:13:05.229Z,20.70
2019-02-27T09:15:36.300Z,17.77
2019-02-27T09:18:05.022Z,21.07
2019-02-27T09:20:33.782Z,17.77
2019-02-27T09:23:05.254Z,23.23
2019-02-27T09:25:39.217Z,24.93
2019-02-27T09:28:09.328Z,19.80
2019-02-27T09:30:38.721Z,18.93
2019-02-27T09:33:11.571Z,22.93
2019-02-27T09:35:41.476Z,19.80
2019-02-27T09:38:10.274Z,19.07
2019-02-27T09:40:39.698Z,17.47
2019-02-27T09:43:08.383Z,18.57
2019-02-27T09:45:37.971Z,20.73
2019-02-27T09:48:06.664Z,20.17
2019-02-27T09:50:39.359Z,19.77
2019-02-27T09:53:07.912Z,19.23
2019-02-27T09:55:36.441Z,21.40
2019-02-27T09:58:09.879Z,22.53
2019-02-27T10:00:36.852Z,18.33
2019-02-27T10:03:05.720Z,19.67
2019-02-27T10:05:36.741Z,19.97
2019-02-27T10:08:07.603Z,18.07
2019-02-27T10:10:36.510Z,20.70
2019-02-27T10:13:05.147Z,21.87
2019-02-27T10:15:34.634Z,19.03
2019-02-27T10:18:05.843Z,19.77
2019-02-27T10:20:38.843Z,22.77
2019-02-27T10:23:07.700Z,19.80
2019-02-27T10:25:36.607Z,23.23
2019-02-27T10:28:10.663Z,18.67
2019-02-27T10:30:39.589Z,22.83
2019-02-27T10:33:13.928Z,21.53
2019-02-27T10:35:42.590Z,20.27
2019-02-27T10:38:11.363Z,22.77
2019-02-27T10:40:42.839Z,17.67
2019-02-27T10:43:16.507Z,19.40
2019-02-27T10:45:48.244Z,22.23
2019-02-27T10:48:15.766Z,20.37
2019-02-27T10:50:44.320Z,17.60
2019-02-27T10:53:14.055Z,20.43
2019-02-27T10:55:48.589Z,21.77
2019-02-27T10:58:13.785Z,24.17
2019-02-27T11:00:44.049Z,24.93
2019-02-27T11:03:12.649Z,17.97
2019-02-27T11:05:41.305Z,21.43
2019-02-27T11:08:10.001Z,21.77
2019-02-27T11:10:38.544Z,20.47
2019-02-27T11:13:07.175Z,19.50
2019-02-27T11:15:38.728Z,20.30
2019-02-27T11:18:08.377Z,18.37
2019-02-27T11:20:36.812Z,20.53
2019-02-27T11:23:07.023Z,20.97
2019-02-27T11:25:35.767Z,20.27
2019-02-27T11:28:04.399Z,20.10
2019-02-27T11:30:36.251Z,21.67
2019-02-27T11:33:03.724Z,20.70
2019-02-27T11:35:32.216Z,22.53
2019-02-27T11:38:00.786Z,23.70
2019-02-27T11:40:31.224Z,21.17
2019-02-27T11:43:01.130Z,21.77
2019-02-27T11:45:29.803Z,24.70
2019-02-27T11:47:58.684Z,22.93
2019-02-27T11:50:27.301Z,25.17
2019-02-27T11:52:55.947Z,25.43
2019-02-27T11:55:26.326Z,21.67
2019-02-27T11:57:54.855Z,23.83
2019-02-27T12:00:27.916Z,21.53
2019-02-27T12:02:56.697Z,27.10
2019-02-27T12:05:30.835Z,24.03
2019-02-27T12:07:55.653Z,24.80
2019-02-27T12:10:25.027Z,22.90
2019-02-27T12:12:59.516Z,24.50
2019-02-27T12:15:27.329Z,21.63
2019-02-27T12:18:00.627Z,21.67
2019-02-27T12:20:28.825Z,28.13
2019-02-27T12:22:57.631Z,22.03
2019-02-27T12:25:28.932Z,24.37
2019-02-27T12:27:57.246Z,22.90
2019-02-27T12:30:26.279Z,24.57
2019-02-27T12:32:56.725Z,25.60
2019-02-27T12:35:25.974Z,26.87
2019-02-27T12:37:54.491Z,25.53
2019-02-27T12:40:25.477Z,24.47
2019-02-27T12:42:53.956Z,24.23
2019-02-27T12:45:25.758Z,26.60
2019-02-27T12:47:53.263Z,26.90
2019-02-27T12:50:22.088Z,22.80
2019-02-27T12:52:50.507Z,25.33
2019-02-27T12:55:20.486Z,25.30
2019-02-27T12:57:49.603Z,26.33
2019-02-27T13:00:20.828Z,25.37
2019-02-27T13:02:49.276Z,26.10
2019-02-27T13:05:18.058Z,26.27
2019-02-27T13:07:46.715Z,25.33
2019-02-27T13:10:16.193Z,29.10
2019-02-27T13:12:45.649Z,23.97
2019-02-27T13:15:15.044Z,27.20
2019-02-27T13:17:43.663Z,27.40
2019-02-27T13:20:13.612Z,24.50
2019-02-27T13:22:42.163Z,21.70
2019-02-27T13:25:10.759Z,22.70
2019-02-27T13:27:40.269Z,22.40
2019-02-27T13:30:10.559Z,24.47
2019-02-27T13:32:39.251Z,25.50
2019-02-27T13:35:07.986Z,25.67
2019-02-27T13:37:36.552Z,23.50
2019-02-27T13:40:07.732Z,23.53
2019-02-27T13:42:36.256Z,20.77
2019-02-27T13:45:07.846Z,23.23
2019-02-27T13:47:36.259Z,23.20
2019-02-27T13:50:04.972Z,23.47
2019-02-27T13:52:36.569Z,23.27
2019-02-27T13:55:05.143Z,25.43
2019-02-27T13:57:33.525Z,25.00
2019-02-27T14:00:02.164Z,21.47
2019-02-27T14:02:30.701Z,22.40
2019-02-27T14:05:00.748Z,22.07
2019-02-27T14:07:29.557Z,23.90
2019-02-27T14:09:58.039Z,22.97
2019-02-27T14:12:26.536Z,21.80
2019-02-27T14:14:55.926Z,24.43
2019-02-27T14:17:25.277Z,24.67
2019-02-27T14:20:05.171Z,21.80
2019-02-27T14:22:27.407Z,21.17
2019-02-27T14:24:58.360Z,23.03
2019-02-27T14:27:26.896Z,25.27
2019-02-27T14:29:55.535Z,24.37
2019-02-27T14:32:23.996Z,24.13
2019-02-27T14:34:53.819Z,23.77
2019-02-27T14:37:22.396Z,24.40
2019-02-27T14:39:51.510Z,28.17
2019-02-27T14:42:20.703Z,27.30
2019-02-27T14:44:51.020Z,23.70
2019-02-27T14:47:19.599Z,27.03
2019-02-27T14:49:48.299Z,27.67
2019-02-27T14:52:18.067Z,28.90
2019-02-27T14:54:46.746Z,29.07
2019-02-27T14:57:16.119Z,29.50
2019-02-27T14:59:46.993Z,31.63
2019-02-27T15:02:16.706Z,30.03
2019-02-27T15:04:45.222Z,31.87
2019-02-27T15:07:13.943Z,32.23
2019-02-27T15:09:52.980Z,32.63
2019-02-27T15:12:22.456Z,32.07
2019-02-27T15:14:53.734Z,32.77
2019-02-27T15:17:22.471Z,33.33
2019-02-27T15:19:51.153Z,33.50
2019-02-27T15:22:20.515Z,32.73
2019-02-27T15:24:53.103Z,32.30
2019-02-27T15:27:22.456Z,34.87
2019-02-27T15:29:55.128Z,32.87
2019-02-27T15:32:26.837Z,35.60
2019-02-27T15:34:55.875Z,36.10
2019-02-27T15:37:24.509Z,38.47
2019-02-27T15:39:58.094Z,37.70
2019-02-27T15:42:25.787Z,39.37
2019-02-27T15:44:54.260Z,35.47
2019-02-27T15:47:22.934Z,39.60
2019-02-27T15:49:54.363Z,38.93
2019-02-27T15:52:23.067Z,39.23
2019-02-27T15:54:51.643Z,37.10
2019-02-27T15:57:20.227Z,39.67
2019-02-27T15:59:49.246Z,35.37
2019-02-27T16:02:17.779Z,37.83
2019-02-27T16:08:30.998Z,36.40
2019-02-27T16:11:09.849Z,41.53
2019-02-27T16:13:38.571Z,43.17
2019-02-27T16:16:09.509Z,40.27
2019-02-27T16:18:40.516Z,45.60
2019-02-27T16:21:12.575Z,42.07
2019-02-27T16:23:42.847Z,36.53
2019-02-27T16:26:14.415Z,42.73
2019-02-27T16:28:48.900Z,39.20
2019-02-27T16:31:14.894Z,39.40
2019-02-27T16:33:43.428Z,39.13
2019-02-27T16:36:12.946Z,38.20
2019-02-27T16:38:42.736Z,44.30
2019-02-27T16:41:11.577Z,40.20
2019-02-27T16:43:40.137Z,39.00
2019-02-27T16:46:08.910Z,35.27
2019-02-27T16:48:37.525Z,43.43
2019-02-27T16:51:09.324Z,40.13
2019-02-27T16:53:38.180Z,40.17
2019-02-27T16:56:08.451Z,39.57
2019-02-27T16:58:40.789Z,39.93
2019-02-27T17:01:09.393Z,39.13
2019-02-27T17:03:38.043Z,43.20
2019-02-27T17:06:06.686Z,43.13
2019-02-27T17:08:36.255Z,42.33
2019-02-27T17:11:04.971Z,44.70
2019-02-27T17:13:33.809Z,48.90
2019-02-27T17:16:02.546Z,43.20
2019-02-27T17:18:31.290Z,43.23
2019-02-27T17:21:02.087Z,42.43
2019-02-27T17:23:35.052Z,42.60
2019-02-27T17:26:20.881Z,45.60
2019-02-27T17:29:42.518Z,47.60
2019-02-27T17:32:11.763Z,41.33
2019-02-27T17:34:47.485Z,45.93
2019-02-27T17:37:13.308Z,41.23
2019-02-27T17:40:06.131Z,43.97
2019-02-27T17:42:35.324Z,46.70
2019-02-27T17:45:04.759Z,41.97
2019-02-27T17:47:36.606Z,43.87
2019-02-27T17:50:07.437Z,42.73
2019-02-27T17:52:38.197Z,42.20
2019-02-27T17:55:17.617Z,41.43
2019-02-27T17:57:50.786Z,46.23
2019-02-27T18:00:24.274Z,46.40
2019-02-27T18:02:54.939Z,46.37
2019-02-27T18:05:29.154Z,46.13
2019-02-27T18:07:59.311Z,51.77
2019-02-27T18:10:28.585Z,48.80
2019-02-27T18:12:58.815Z,48.13
2019-02-27T18:15:28.363Z,45.63
2019-02-27T18:17:59.346Z,49.13
2019-02-27T18:20:28.540Z,51.47
2019-02-27T18:26:50.018Z,50.17
2019-02-27T18:29:17.682Z,47.43
2019-02-27T18:31:50.137Z,50.07
2019-02-27T18:34:26.205Z,52.77
2019-02-27T18:36:58.213Z,50.37
2019-02-27T18:39:41.276Z,50.17
2019-02-27T18:42:21.745Z,54.13
2019-02-27T18:44:53.149Z,56.63
2019-02-27T18:47:32.103Z,52.73
2019-02-27T18:50:03.149Z,54.87
2019-02-27T18:55:31.453Z,54.17
2019-02-27T18:58:08.108Z,53.13
2019-02-27T19:00:43.413Z,54.37
2019-02-27T19:03:12.313Z,54.90
2019-02-27T19:05:45.438Z,59.17
2019-02-27T19:08:28.150Z,51.23
2019-02-27T19:11:02.118Z,56.20
2019-02-27T19:13:35.283Z,53.43
2019-02-27T19:16:05.692Z,54.67
2019-02-27T19:18:55.992Z,52.53
2019-02-27T19:21:38.260Z,53.17
2019-02-27T19:24:09.071Z,52.67
2019-02-27T19:26:49.455Z,54.93
2019-02-27T19:33:01.593Z,52.13
2019-02-27T19:35:32.899Z,56.20
2019-02-27T19:41:05.170Z,51.87
2019-02-27T19:43:47.334Z,55.37
2019-02-27T19:53:33.109Z,49.03
2019-02-27T19:56:22.808Z,53.10
2019-02-27T20:03:01.173Z,49.10
2019-02-27T20:05:50.642Z,55.67
2019-02-27T20:08:32.700Z,53.37
2019-02-27T20:11:31.249Z,50.77
2019-02-27T20:14:06.335Z,54.63
2019-02-27T20:16:43.262Z,55.37
2019-02-27T20:19:22.364Z,56.90
2019-02-27T20:21:58.570Z,56.40
2019-02-27T20:24:52.387Z,55.87
2019-02-27T20:30:52.638Z,52.77
2019-02-27T20:37:07.632Z,53.73
2019-02-27T20:39:41.485Z,55.63
2019-02-27T20:42:15.416Z,64.67
2019-02-27T20:44:59.893Z,56.50
2019-02-27T20:48:04.798Z,55.87
2019-02-27T20:51:02.627Z,54.30
2019-02-27T20:53:55.512Z,55.73
2019-02-27T20:56:39.806Z,54.53
2019-02-27T21:03:11.046Z,59.17
2019-02-27T21:09:30.915Z,62.47
2019-02-27T21:19:07.145Z,56.23
2019-02-27T21:21:36.900Z,52.47
2019-02-27T21:27:56.153Z,50.87
2019-02-27T21:30:32.348Z,54.80
2019-02-27T21:33:08.312Z,56.73
2019-02-27T21:35:44.705Z,57.13
2019-02-27T21:38:47.509Z,52.97
2019-02-27T21:41:20.083Z,59.37
2019-02-27T21:43:57.775Z,56.43
2019-02-27T21:46:54.531Z,58.60
2019-02-27T21:49:53.669Z,56.07
2019-02-27T21:52:28.118Z,56.43
2019-02-27T21:55:28.183Z,60.67
2019-02-27T21:58:05.733Z,54.43
2019-02-27T22:00:33.146Z,66.03
2019-02-27T22:03:09.102Z,57.13
2019-02-27T22:05:42.935Z,58.73
2019-02-27T22:08:14.360Z,58.20
2019-02-27T22:10:55.800Z,53.47
2019-02-27T22:13:32.192Z,57.03
2019-02-27T22:16:08.335Z,59.13
2019-02-27T22:18:38.335Z,53.70
2019-02-27T22:21:11.642Z,61.60
2019-02-27T22:24:00.254Z,61.33
2019-02-27T22:26:57.100Z,58.30
2019-02-27T22:29:22.341Z,58.53
2019-02-27T22:31:51.489Z,63.73
2019-02-27T22:35:12.309Z,58.77
2019-02-27T22:36:58.532Z,61.30
2019-02-27T22:39:24.584Z,64.07
2019-02-27T22:41:59.113Z,60.97
2019-02-27T22:50:22.495Z,65.00
2019-02-27T22:53:26.168Z,59.30
2019-02-27T22:55:57.720Z,60.40
2019-02-27T22:58:28.272Z,67.37
2019-02-27T23:01:21.654Z,65.30
2019-02-27T23:06:57.362Z,63.90
2019-02-27T23:09:28.094Z,66.03
2019-02-27T23:11:56.881Z,67.83
2019-02-27T23:14:26.002Z,71.67
2019-02-27T23:16:54.672Z,70.60
2019-02-27T23:19:26.727Z,68.50
2019-02-27T23:22:05.738Z,76.50
2019-02-27T23:24:35.244Z,68.17
2019-02-27T23:27:04.163Z,71.50
2019-02-27T23:29:32.818Z,70.20
2019-02-27T23:32:29.624Z,65.87
2019-02-27T23:35:35.256Z,71.57
2019-02-27T23:38:04.041Z,71.83
2019-02-27T23:40:33.683Z,71.00
2019-02-27T23:43:03.397Z,72.87
2019-02-27T23:46:09.599Z,75.67
2019-02-27T23:48:44.724Z,71.87
2019-02-27T23:51:16.731Z,78.57
2019-02-27T23:53:45.777Z,76.23
2019-02-27T23:56:20.743Z,74.57
2019-02-27T23:59:09.442Z,73.40
